Huvudsida
METAR-TAF:

METAR-TAF

Flygplatser :

Dakar, Senegal

latitud: 14-44N, longitud: 017-30W, höjd: 27 m

Aktuellt väderrapport

Denna rapport gjordes för 1 timme och 13 minuter sedan, klockan 01:00 UTC
Vind 2 kt från nord
Temperatur 28°C
Fuktighet 84%
Tryck 1014 hPa
Sikt 10 km eller mer
Spridda moln på en höjd av 1100 ft

METAR: GOOY 230100Z 36002KT 9999 SCT011 28/25 Q1014

Tid: 02:13 (02:13 UTC)

Väderprognos

Denna rapport gjordes för 2 timmar och 43 minuter sedan, klockan 23:30 UTC
Prognos gäller från 23 kl. 00 UTC till 24 kl. 06 UTC
Vind 8 kt från nord/nordväst
Sikt 10 km eller mer
Spridda moln på en höjd av 1200 ft

TAF: GOOY 222330Z 2300/2406 34008KT 9999 SCT012

Aktuella väderrapporter och prognoser från 4000 flygplatser (METAR- och TAF-rapporter).

De tillgängliga stationerna syns som gula och röda prickar på kartan.

För musen över prickarna för att se namnen på stationerna.

Klicka sedan för att få väderrapporter och prognoser.

För att ändra kartan: Klicka på de gröna knapparna med ett svart kors på för att zooma in; den gröna knappen med ett streck på för att zooma ut; eller på de gröna pilarna för angränsande kartor.


METAR-TAF: